Time;durP1;ratioP1;P1;durP2;ratioP2;P2;SDS_P1;SDS_P2;PMS_P1;PMS_P2;Temp;Humidity;BMP_temperature;BMP_pressure;BME280_temperature;BME280_humidity;BME280_pressure;Samples;Min_cycle;Max_cycle;Signal;HPM_P1;HPM_P2
2023/07/14 00:00:07;;;;;;;3.50;2.40;;;;;;;17.33;100.00;96200.22;1041068;28;20029;-74
2023/07/14 00:00:39;;;;;;;10.95;3.85;;;;;;;17.33;100.00;96196.78;1044168;28;20024;-74
2023/07/14 00:01:21;;;;;;;6.60;2.50;;;;;;;17.30;100.00;96197.38;1038540;28;20108;-72
2023/07/14 00:01:51;;;;;;;22.88;3.25;;;;;;;17.29;100.00;96198.47;1041163;28;20030;-73
2023/07/14 00:02:21;;;;;;;3.60;2.35;;;;;;;17.25;100.00;96192.19;1034945;28;20041;-74
2023/07/14 00:02:53;;;;;;;9.70;2.78;;;;;;;17.24;100.00;96195.91;1031197;28;20033;-73
2023/07/14 00:03:23;;;;;;;10.88;2.75;;;;;;;17.16;100.00;96194.72;1034699;28;20026;-73
2023/07/14 00:03:54;;;;;;;12.07;2.63;;;;;;;17.17;100.00;96197.09;1043282;28;20032;-73
2023/07/14 00:04:31;;;;;;;6.15;2.35;;;;;;;17.13;100.00;96204.03;1040450;28;20033;-73
2023/07/14 00:05:03;;;;;;;10.32;3.28;;;;;;;17.12;100.00;96199.03;1040686;28;20049;-74
2023/07/14 00:05:35;;;;;;;5.85;2.80;;;;;;;17.04;100.00;96197.84;1039075;28;20025;-74
2023/07/14 00:06:05;;;;;;;8.02;2.83;;;;;;;17.01;100.00;96195.78;1028538;28;20030;-73
2023/07/14 00:06:36;;;;;;;8.27;2.53;;;;;;;17.00;100.00;96202.16;1028189;28;20125;-74
2023/07/14 00:07:10;;;;;;;13.73;3.05;;;;;;;16.97;100.00;96202.75;1035379;28;20034;-73
2023/07/14 00:07:41;;;;;;;16.00;2.83;;;;;;;16.96;100.00;96203.81;1038076;28;20036;-70
2023/07/14 00:08:17;;;;;;;11.75;2.85;;;;;;;16.91;100.00;96203.91;1039145;28;20047;-73
2023/07/14 00:08:47;;;;;;;31.23;4.60;;;;;;;16.91;100.00;96203.91;1038979;28;20017;-74
2023/07/14 00:09:25;;;;;;;9.15;2.42;;;;;;;16.88;100.00;96199.19;1039837;28;20036;-70
2023/07/14 00:09:55;;;;;;;4.97;2.33;;;;;;;16.86;100.00;96202.09;1039194;28;20018;-73
2023/07/14 00:10:31;;;;;;;3.05;2.30;;;;;;;16.76;100.00;96196.97;1039043;28;20021;-73
2023/07/14 00:11:01;;;;;;;7.13;2.70;;;;;;;16.64;100.00;96181.53;1038859;28;20774;-74
2023/07/14 00:11:31;;;;;;;5.15;2.40;;;;;;;16.77;100.00;96203.06;1034576;28;20037;-74
2023/07/14 00:12:02;;;;;;;4.40;2.20;;;;;;;16.70;100.00;96206.09;1027640;28;20019;-73
2023/07/14 00:12:33;;;;;;;3.22;2.28;;;;;;;16.72;100.00;96202.03;1030819;28;20046;-73
2023/07/14 00:13:05;;;;;;;12.45;2.97;;;;;;;16.66;100.00;96191.81;1030989;28;20566;-73
2023/07/14 00:13:35;;;;;;;6.80;2.35;;;;;;;16.71;100.00;96200.47;1022951;29;20015;-73
2023/07/14 00:14:06;;;;;;;4.25;2.17;;;;;;;16.70;100.00;96204.22;1025742;28;20055;-74
2023/07/14 00:14:36;;;;;;;8.60;3.20;;;;;;;16.71;100.00;96194.41;1030867;28;20030;-71
2023/07/14 00:15:07;;;;;;;6.13;2.40;;;;;;;16.70;100.00;96203.44;1029720;28;20018;-72
2023/07/14 00:15:39;;;;;;;8.43;3.97;;;;;;;16.63;100.00;96187.09;1043631;28;20017;-73
2023/07/14 00:16:17;;;;;;;9.38;3.53;;;;;;;16.69;100.00;96207.13;1031263;28;20563;-74
2023/07/14 00:16:47;;;;;;;23.25;3.50;;;;;;;16.62;100.00;96186.31;1033811;28;20515;-73
2023/07/14 00:17:18;;;;;;;5.13;2.38;;;;;;;16.68;100.00;96202.94;1031512;28;20018;-73
2023/07/14 00:17:50;;;;;;;9.35;3.28;;;;;;;16.66;100.00;96203.19;1037011;28;20624;-72
2023/07/14 00:18:24;;;;;;;4.03;2.20;;;;;;;16.55;100.00;96191.19;1030846;28;20015;-73
2023/07/14 00:18:54;;;;;;;12.02;2.95;;;;;;;16.54;100.00;96194.94;1035048;28;20097;-73
2023/07/14 00:19:25;;;;;;;5.65;2.95;;;;;;;16.57;100.00;96204.97;1038904;28;20344;-72
2023/07/14 00:19:56;;;;;;;16.92;2.58;;;;;;;16.56;100.00;96197.28;1030795;28;20021;-72
2023/07/14 00:20:29;;;;;;;10.68;2.55;;;;;;;16.54;100.00;96192.28;1034875;28;20025;-73
2023/07/14 00:20:59;;;;;;;3.67;2.15;;;;;;;16.59;100.00;96208.09;1037534;28;20120;-71
2023/07/14 00:21:30;;;;;;;7.05;2.63;;;;;;;16.55;100.00;96203.66;1038809;28;20036;-73
2023/07/14 00:22:00;;;;;;;6.75;2.35;;;;;;;16.54;100.00;96200.22;1038884;28;20068;-73
2023/07/14 00:22:31;;;;;;;3.97;1.95;;;;;;;16.50;100.00;96197.38;1043005;28;20493;-73
2023/07/14 00:23:03;;;;;;;8.57;2.35;;;;;;;16.48;100.00;96190.78;1039080;28;20029;-72
2023/07/14 00:23:35;;;;;;;5.13;2.28;;;;;;;16.53;100.00;96200.50;1035060;28;20029;-73
2023/07/14 00:24:13;;;;;;;4.22;2.70;;;;;;;16.52;100.00;96196.28;1035354;28;20483;-72
2023/07/14 00:24:44;;;;;;;10.27;3.53;;;;;;;16.52;100.00;96201.59;1039136;28;20485;-73
2023/07/14 00:25:14;;;;;;;6.25;2.75;;;;;;;16.50;100.00;96199.25;1035114;28;20062;-73
2023/07/14 00:25:45;;;;;;;4.00;2.40;;;;;;;16.45;100.00;96192.13;1035898;28;20030;-73
2023/07/14 00:26:19;;;;;;;6.00;2.63;;;;;;;16.44;100.00;96195.09;1030939;28;20057;-74
2023/07/14 00:26:53;;;;;;;8.00;2.50;;;;;;;16.41;100.00;96190.38;1030898;28;20037;-73
2023/07/14 00:27:24;;;;;;;7.50;2.28;;;;;;;16.42;100.00;96192.72;1030880;28;20026;-73
2023/07/14 00:27:55;;;;;;;5.40;2.60;;;;;;;16.41;100.00;96195.66;1034848;28;20034;-74
2023/07/14 00:28:25;;;;;;;8.20;2.30;;;;;;;16.46;100.00;96198.22;1030690;28;20884;-74
2023/07/14 00:28:56;;;;;;;7.75;2.75;;;;;;;16.39;100.00;96181.91;1030833;28;20061;-73
2023/07/14 00:29:34;;;;;;;5.88;2.45;;;;;;;16.42;100.00;96195.38;1030838;28;20058;-73
2023/07/14 00:30:24;;;;;;;4.97;2.60;;;;;;;16.38;100.00;96190.94;1029771;28;20037;-73
2023/07/14 00:30:54;;;;;;;6.65;2.30;;;;;;;16.38;100.00;96197.03;1030788;28;20149;-72
2023/07/14 00:31:25;;;;;;;6.75;2.88;;;;;;;16.37;100.00;96190.16;1025999;28;20082;-73
2023/07/14 00:31:55;;;;;;;4.22;2.35;;;;;;;16.41;100.00;96193.78;1026934;28;20023;-74
2023/07/14 00:32:26;;;;;;;7.20;2.30;;;;;;;16.39;100.00;96192.50;1030878;28;20060;-73
2023/07/14 00:32:57;;;;;;;5.38;2.10;;;;;;;16.32;100.00;96192.09;1034280;28;20824;-73
2023/07/14 00:33:27;;;;;;;7.90;2.50;;;;;;;16.39;100.00;96197.81;1035240;28;20029;-72
2023/07/14 00:33:58;;;;;;;3.40;1.98;;;;;;;16.39;100.00;96198.59;1039063;28;20052;-73
2023/07/14 00:34:29;;;;;;;4.80;2.42;;;;;;;16.39;100.00;96193.28;1038911;28;20069;-73
2023/07/14 00:34:59;;;;;;;6.07;2.38;;;;;;;16.42;100.00;96197.22;1043257;28;20033;-73
2023/07/14 00:35:30;;;;;;;8.68;2.65;;;;;;;16.43;100.00;96193.50;1043144;28;20612;-73
2023/07/14 00:36:00;;;;;;;3.97;2.70;;;;;;;16.44;100.00;96197.75;1039615;28;20040;-73
2023/07/14 00:36:31;;;;;;;4.07;2.28;;;;;;;16.46;100.00;96190.28;1042951;28;20025;-74
2023/07/14 00:37:01;;;;;;;3.08;2.15;;;;;;;16.30;100.00;96162.44;1043105;28;20048;-73
2023/07/14 00:37:32;;;;;;;5.55;2.28;;;;;;;16.49;100.00;96181.75;1034923;28;20018;-72
2023/07/14 00:38:02;;;;;;;5.18;2.08;;;;;;;16.51;100.00;96184.91;1030629;28;20026;-73
2023/07/14 00:38:34;;;;;;;3.00;1.95;;;;;;;16.46;100.00;96184.97;1034909;28;20455;-74
2023/07/14 00:39:04;;;;;;;3.22;1.95;;;;;;;16.52;100.00;96181.19;1030977;28;20085;-73
2023/07/14 00:39:35;;;;;;;4.57;2.00;;;;;;;16.53;100.00;96182.75;1032810;28;20129;-74
2023/07/14 00:40:08;;;;;;;3.08;2.20;;;;;;;16.56;100.00;96176.09;1034701;28;20037;-73
2023/07/14 00:40:41;;;;;;;7.93;2.40;;;;;;;16.56;100.00;96176.88;1034817;28;20034;-72
2023/07/14 00:41:16;;;;;;;4.55;2.35;;;;;;;16.59;100.00;96170.22;1030072;28;20644;-73
2023/07/14 00:41:47;;;;;;;4.07;2.05;;;;;;;16.59;100.00;96176.28;1031006;28;20026;-74
2023/07/14 00:42:17;;;;;;;6.57;2.38;;;;;;;16.53;100.00;96166.84;1026806;28;20026;-73
2023/07/14 00:42:51;;;;;;;2.60;1.65;;;;;;;16.59;100.00;96170.22;1032014;28;20045;-74
2023/07/14 00:43:24;;;;;;;3.30;1.80;;;;;;;16.60;100.00;96169.94;1030901;28;20061;-73
2023/07/14 00:43:54;;;;;;;3.35;1.98;;;;;;;16.60;100.00;96164.63;1026951;28;20042;-73
2023/07/14 00:44:25;;;;;;;3.78;1.77;;;;;;;16.62;100.00;96159.81;1031732;28;20851;-74
2023/07/14 00:44:56;;;;;;;18.55;2.92;;;;;;;16.56;100.00;96153.03;1034969;28;20168;-73
2023/07/14 00:45:27;;;;;;;43.22;4.68;;;;;;;16.63;100.00;96161.41;1035354;28;20026;-74
2023/07/14 00:45:58;;;;;;;15.93;3.28;;;;;;;16.64;100.00;96168.28;1026720;28;20027;-74
2023/07/14 00:46:29;;;;;;;30.13;5.95;;;;;;;16.63;100.00;96166.72;1029498;28;20037;-72
2023/07/14 00:47:00;;;;;;;18.17;3.53;;;;;;;16.61;100.00;96163.56;1030622;28;20087;-72
2023/07/14 00:47:30;;;;;;;5.35;1.80;;;;;;;16.60;100.00;96164.63;1034829;28;20095;-73
2023/07/14 00:48:05;;;;;;;6.45;2.17;;;;;;;16.58;100.00;96155.41;1032187;28;20031;-73
2023/07/14 00:48:36;;;;;;;4.28;1.52;;;;;;;16.55;100.00;96164.69;1030906;28;20129;-74
2023/07/14 00:49:10;;;;;;;7.13;2.05;;;;;;;16.57;100.00;96162.56;1026715;28;20800;-73
2023/07/14 00:49:40;;;;;;;10.07;1.85;;;;;;;16.51;100.00;96155.78;1034802;28;20026;-73
2023/07/14 00:50:21;;;;;;;21.08;2.63;;;;;;;16.53;100.00;96155.47;1034843;28;20101;-73
2023/07/14 00:50:57;;;;;;;;;;;;;;;16.50;100.00;96151.56;1026526;28;20018;-74
2023/07/14 00:51:29;;;;;;;4.65;1.83;;;;;;;16.47;100.00;96157.44;1029932;28;20682;-73
2023/07/14 00:52:06;;;;;;;7.57;2.00;;;;;;;16.44;100.00;96147.41;1037885;28;20057;-73
2023/07/14 00:52:37;;;;;;;3.60;1.90;;;;;;;16.41;100.00;96148.78;1034311;28;20056;-71
2023/07/14 00:53:33;;;;;;;3.97;1.67;;;;;;;16.41;100.00;96153.28;1038678;28;20038;-73
2023/07/14 00:54:04;;;;;;;5.75;1.42;;;;;;;16.38;100.00;96156.50;1026699;28;20042;-73
2023/07/14 00:54:37;;;;;;;7.47;1.70;;;;;;;16.35;100.00;96155.22;1034934;28;20495;-73
2023/07/14 00:55:24;;;;;;;4.53;2.35;;;;;;;16.31;100.00;96154.22;1030482;28;20183;-73
2023/07/14 00:56:35;;;;;;;4.50;2.35;;;;;;;16.24;100.00;96151.94;1032448;28;20481;-73
2023/07/14 00:57:15;;;;;;;3.80;1.50;;;;;;;16.19;100.00;96153.88;1042237;28;20023;-73
2023/07/14 00:57:46;;;;;;;3.80;1.63;;;;;;;16.07;100.00;96135.00;1038187;28;20037;-73
2023/07/14 00:58:23;;;;;;;2.72;1.55;;;;;;;16.09;100.00;96141.56;1028949;28;20407;-72
2023/07/14 00:58:53;;;;;;;3.78;1.35;;;;;;;16.17;100.00;96148.88;1034890;28;20599;-73
2023/07/14 00:59:33;;;;;;;3.83;1.60;;;;;;;16.13;100.00;96155.81;1034740;28;20076;-73
2023/07/14 01:00:14;;;;;;;4.68;1.88;;;;;;;16.12;100.00;96153.44;1037254;28;20064;-73
2023/07/14 01:01:10;;;;;;;6.63;1.70;;;;;;;15.88;100.00;96125.19;1041553;28;20029;-73
2023/07/14 01:02:16;;;;;;;2.45;1.52;;;;;;;16.01;100.00;96147.53;1038614;28;20424;-73
2023/07/14 01:02:46;;;;;;;12.32;2.78;;;;;;;15.92;100.00;96141.28;1033266;28;20557;-73
2023/07/14 01:03:17;;;;;;;5.60;1.65;;;;;;;15.93;100.00;96141.03;1036266;28;20018;-73
2023/07/14 01:03:49;;;;;;;2.90;1.60;;;;;;;15.89;100.00;96131.28;1032509;28;20022;-73
2023/07/14 01:04:20;;;;;;;4.47;1.50;;;;;;;15.91;100.00;96145.03;1034834;28;20030;-72
2023/07/14 01:04:58;;;;;;;8.57;2.00;;;;;;;15.88;100.00;96142.94;1036917;28;20021;-72
2023/07/14 01:05:29;;;;;;;2.50;1.83;;;;;;;15.88;100.00;96150.88;1030758;28;20492;-72
2023/07/14 01:06:02;;;;;;;4.00;1.60;;;;;;;15.83;100.00;96140.34;1034125;28;20111;-73
2023/07/14 01:06:38;;;;;;;3.10;1.67;;;;;;;15.64;100.00;96122.59;1034726;28;20555;-73
2023/07/14 01:07:08;;;;;;;2.95;1.55;;;;;;;15.81;100.00;96145.16;1030821;28;20091;-73
2023/07/14 01:07:41;;;;;;;3.75;1.60;;;;;;;15.75;100.00;96142.56;1026595;28;20019;-73
2023/07/14 01:08:12;;;;;;;3.20;1.55;;;;;;;15.73;100.00;96144.72;1030766;28;20010;-74
2023/07/14 01:08:47;;;;;;;5.78;2.00;;;;;;;15.72;100.00;96148.44;1030952;28;20384;-73
2023/07/14 01:09:18;;;;;;;5.13;2.40;;;;;;;15.70;100.00;96140.00;1031858;28;20011;-73
2023/07/14 01:09:49;;;;;;;3.92;1.30;;;;;;;15.68;100.00;96141.34;1028665;28;20031;-74
2023/07/14 01:10:22;;;;;;;3.20;1.58;;;;;;;15.68;100.00;96147.44;1038723;28;20014;-72
2023/07/14 01:10:53;;;;;;;1.75;1.35;;;;;;;15.60;100.00;96134.81;1028709;28;20400;-73
2023/07/14 01:11:27;;;;;;;5.25;1.58;;;;;;;15.64;100.00;96145.63;1029953;28;20019;-73
2023/07/14 01:11:57;;;;;;;2.67;1.70;;;;;;;15.63;100.00;96152.78;1034558;28;20439;-74
2023/07/14 01:12:28;;;;;;;3.17;1.63;;;;;;;15.57;100.00;96140.69;1031872;28;20022;-74
2023/07/14 01:13:02;;;;;;;8.55;2.03;;;;;;;15.44;100.00;96120.22;1026710;28;20015;-73
2023/07/14 01:13:32;;;;;;;11.38;2.38;;;;;;;15.56;100.00;96137.25;1034711;28;20022;-74
2023/07/14 01:14:06;;;;;;;8.25;2.05;;;;;;;15.48;100.00;96139.72;1028387;28;20022;-73
2023/07/14 01:14:44;;;;;;;3.83;1.75;;;;;;;15.51;100.00;96147.09;1030677;28;20564;-73
2023/07/14 01:15:15;;;;;;;3.15;1.70;;;;;;;15.52;100.00;96143.38;1029077;28;20113;-74
2023/07/14 01:15:47;;;;;;;4.28;1.45;;;;;;;15.50;100.00;96142.88;1030358;28;20033;-74
2023/07/14 01:16:18;;;;;;;4.75;1.65;;;;;;;15.46;100.00;96149.78;1030568;28;20034;-71
2023/07/14 01:16:50;;;;;;;6.13;1.80;;;;;;;15.39;100.00;96144.88;1030648;28;20026;-73
2023/07/14 01:17:21;;;;;;;4.10;1.67;;;;;;;15.45;100.00;96148.22;1030599;28;20018;-74
2023/07/14 01:17:51;;;;;;;3.67;1.80;;;;;;;15.40;100.00;96148.31;1030797;28;20388;-73
2023/07/14 01:18:22;;;;;;;7.03;1.80;;;;;;;15.40;100.00;96146.44;1030558;28;20030;-74
2023/07/14 01:18:52;;;;;;;7.13;1.73;;;;;;;15.41;100.00;96147.22;1030480;28;20030;-74
2023/07/14 01:19:43;;;;;;;5.97;1.67;;;;;;;15.38;100.00;96150.44;1038513;28;20018;-74
2023/07/14 01:20:14;;;;;;;5.65;1.90;;;;;;;15.36;100.00;96149.91;1038552;28;20025;-72
2023/07/14 01:20:45;;;;;;;4.22;1.50;;;;;;;15.25;100.00;96142.09;1040536;28;20471;-73
2023/07/14 01:21:16;;;;;;;5.90;1.70;;;;;;;15.25;100.00;96150.03;1037847;28;20028;-73
2023/07/14 01:21:47;;;;;;;4.40;1.65;;;;;;;15.25;100.00;96147.38;1030767;28;20037;-73
2023/07/14 01:22:59;;;;;;;17.40;2.50;;;;;;;15.26;100.00;96141.06;1036259;28;20070;-73
2023/07/14 01:23:52;;;;;;;;;;;;;;;15.21;100.00;96149.03;1028500;28;20384;-73
2023/07/14 01:24:33;;;;;;;6.18;1.75;;;;;;;15.14;100.00;96145.16;1029178;28;20404;-73
2023/07/14 01:25:38;;;;;;;4.47;1.77;;;;;;;15.13;100.00;96147.00;1031528;28;20444;-73
2023/07/14 01:27:02;;;;;;;3.75;2.38;;;;;;;15.05;100.00;96150.25;1033473;28;20033;-73
2023/07/14 01:27:32;;;;;;;3.10;1.85;;;;;;;15.04;100.00;96152.13;1039290;28;20052;-74
2023/07/14 01:28:07;;;;;;;4.43;1.63;;;;;;;15.00;100.00;96147.69;1041631;28;20394;-73
2023/07/14 01:28:38;;;;;;;4.45;2.83;;;;;;;14.92;100.00;96141.13;1038112;28;20014;-73
2023/07/14 01:29:09;;;;;;;5.88;1.65;;;;;;;14.95;100.00;96143.22;1032018;28;20556;-73
2023/07/14 01:29:39;;;;;;;4.95;1.75;;;;;;;14.97;100.00;96148.22;1034361;28;20022;-73
2023/07/14 01:30:10;;;;;;;3.60;1.65;;;;;;;14.85;100.00;96136.19;1030290;28;20554;-73
2023/07/14 01:30:40;;;;;;;3.08;1.90;;;;;;;14.85;100.00;96144.13;1026506;28;20035;-74
2023/07/14 01:31:12;;;;;;;2.30;1.70;;;;;;;14.88;100.00;96155.97;1024562;28;20025;-73
2023/07/14 01:31:43;;;;;;;4.97;1.83;;;;;;;14.83;100.00;96148.09;1026393;28;20030;-73
2023/07/14 01:32:16;;;;;;;3.40;1.95;;;;;;;14.83;100.00;96148.91;1027629;28;20035;-73
2023/07/14 01:32:48;;;;;;;4.63;2.03;;;;;;;14.78;100.00;96150.78;1028304;28;20109;-74
2023/07/14 01:33:19;;;;;;;4.47;2.03;;;;;;;14.79;100.00;96152.38;1032294;28;20054;-73
2023/07/14 01:33:52;;;;;;;18.15;2.35;;;;;;;14.81;100.00;96153.66;1035981;28;20017;-73
2023/07/14 01:34:22;;;;;;;7.07;1.83;;;;;;;14.79;100.00;96157.66;1032526;28;20094;-73
2023/07/14 01:34:55;;;;;;;9.60;1.98;;;;;;;14.73;100.00;96143.72;1035686;28;20022;-74
2023/07/14 01:35:32;;;;;;;3.00;1.63;;;;;;;14.74;100.00;96147.13;1031860;28;20053;-73
2023/07/14 01:36:03;;;;;;;8.43;2.28;;;;;;;14.76;100.00;96153.72;1030648;28;20090;-72
2023/07/14 01:36:34;;;;;;;10.05;2.05;;;;;;;14.74;100.00;96155.84;1036740;28;20014;-73
2023/07/14 01:37:04;;;;;;;6.15;2.10;;;;;;;14.71;100.00;96147.69;1038260;28;20500;-73
2023/07/14 01:37:37;;;;;;;8.23;2.55;;;;;;;14.70;100.00;96138.97;1040360;28;20929;-74
2023/07/14 01:38:09;;;;;;;11.15;2.35;;;;;;;14.74;100.00;96150.56;1031790;28;20817;-74
2023/07/14 01:38:40;;;;;;;7.40;2.50;;;;;;;14.74;100.00;96149.78;1027933;28;20027;-73
2023/07/14 01:39:11;;;;;;;6.18;2.38;;;;;;;14.72;100.00;96146.63;1034479;28;20018;-73
2023/07/14 01:39:41;;;;;;;5.50;2.08;;;;;;;14.74;100.00;96155.84;1033337;28;20100;-74
2023/07/14 01:40:14;;;;;;;2.58;1.77;;;;;;;14.73;100.00;96148.22;1034035;28;20080;-73
2023/07/14 01:40:45;;;;;;;11.25;1.90;;;;;;;14.72;100.00;96151.91;1042744;28;20577;-74
2023/07/14 01:41:15;;;;;;;6.55;1.85;;;;;;;14.70;100.00;96149.53;1041735;28;20025;-73
2023/07/14 01:41:46;;;;;;;11.25;2.03;;;;;;;14.67;100.00;96146.69;1030440;28;20113;-73
2023/07/14 01:42:16;;;;;;;4.40;1.80;;;;;;;14.69;100.00;96153.25;1034345;28;20071;-73
2023/07/14 01:42:52;;;;;;;8.43;2.22;;;;;;;14.64;100.00;96148.00;1030843;28;20026;-74
2023/07/14 01:43:23;;;;;;;6.45;1.75;;;;;;;14.64;100.00;96145.38;1034659;28;20028;-73
2023/07/14 01:43:53;;;;;;;3.80;1.83;;;;;;;14.64;100.00;96148.00;1032053;28;20694;-73
2023/07/14 01:44:24;;;;;;;5.05;1.92;;;;;;;14.67;100.00;96155.38;1034616;28;20347;-73
2023/07/14 01:44:55;;;;;;;2.55;1.75;;;;;;;14.53;100.00;96130.69;1042661;28;20083;-73
2023/07/14 01:45:31;;;;;;;5.05;2.05;;;;;;;14.66;100.00;96153.81;1045461;28;20021;-73
2023/07/14 01:46:02;;;;;;;3.55;2.00;;;;;;;14.65;100.00;96151.44;1034587;28;20137;-73
2023/07/14 01:46:33;;;;;;;1.75;1.65;;;;;;;14.60;100.00;96145.13;1030538;28;20105;-73
2023/07/14 01:47:05;;;;;;;2.42;1.85;;;;;;;14.63;100.00;96149.09;1027143;28;20034;-73
2023/07/14 01:47:36;;;;;;;3.38;1.67;;;;;;;14.55;100.00;96141.75;1030582;28;20045;-73
2023/07/14 01:48:08;;;;;;;5.38;2.33;;;;;;;14.64;100.00;96150.66;1033661;28;20014;-73
2023/07/14 01:49:02;;;;;;;5.50;2.03;;;;;;;14.58;100.00;96135.91;1034495;28;20343;-74
2023/07/14 01:49:36;;;;;;;2.88;2.00;;;;;;;14.64;100.00;96148.00;1027564;28;20126;-74
2023/07/14 01:50:15;;;;;;;2.85;2.00;;;;;;;14.64;100.00;96149.88;1034585;28;20022;-73
2023/07/14 01:50:49;;;;;;;4.43;2.15;;;;;;;14.66;100.00;96156.47;1040283;28;20444;-73
2023/07/14 01:51:19;;;;;;;3.10;2.20;;;;;;;14.60;100.00;96142.50;1033684;28;20032;-73
2023/07/14 01:51:49;;;;;;;4.15;2.22;;;;;;;14.56;100.00;96136.19;1032227;28;20025;-74
2023/07/14 01:52:23;;;;;;;7.82;2.08;;;;;;;14.59;100.00;96148.84;1030431;28;20010;-73
2023/07/14 01:52:56;;;;;;;2.47;1.60;;;;;;;14.61;100.00;96156.50;1034624;28;21610;-74
2023/07/14 01:53:32;;;;;;;18.63;3.25;;;;;;;14.59;100.00;96154.13;1034248;28;20155;-73
2023/07/14 01:54:21;;;;;;;15.35;2.80;;;;;;;14.56;100.00;96148.63;1028675;28;20119;-73
2023/07/14 01:54:53;;;;;;;14.35;2.92;;;;;;;14.50;100.00;96139.13;1026246;28;20030;-73
2023/07/14 01:55:24;;;;;;;4.28;2.05;;;;;;;14.50;100.00;96147.88;1036426;28;20392;-74
2023/07/14 01:55:55;;;;;;;5.25;2.30;;;;;;;14.47;100.00;96147.59;1033960;28;20014;-74
2023/07/14 01:56:26;;;;;;;9.15;2.72;;;;;;;14.41;100.00;96138.16;1034559;28;20496;-74
2023/07/14 01:56:57;;;;;;;2.65;2.13;;;;;;;14.40;100.00;96137.38;1034650;28;20157;-73
2023/07/14 01:57:29;;;;;;;2.83;2.17;;;;;;;14.41;100.00;96146.84;1032652;28;20130;-73
2023/07/14 01:58:01;;;;;;;4.38;1.83;;;;;;;14.33;100.00;96140.31;1026497;28;20396;-73
2023/07/14 01:58:34;;;;;;;4.05;2.03;;;;;;;14.38;100.00;96147.41;1034651;28;20077;-73
2023/07/14 01:59:15;;;;;;;5.70;2.00;;;;;;;14.37;100.00;96143.97;1032897;28;20018;-73
2023/07/14 01:59:48;;;;;;;2.67;2.10;;;;;;;14.34;100.00;96147.16;1030906;28;20026;-73
2023/07/14 02:00:19;;;;;;;4.85;2.20;;;;;;;14.28;100.00;96145.63;1036742;28;20034;-72
2023/07/14 02:00:50;;;;;;;2.75;1.80;;;;;;;14.35;100.00;96142.66;1028770;28;20556;-73
2023/07/14 02:01:21;;;;;;;8.05;2.28;;;;;;;14.26;100.00;96134.56;1030244;28;20030;-72
2023/07/14 02:01:52;;;;;;;4.93;2.15;;;;;;;14.30;100.00;96145.38;1041736;28;20033;-73
2023/07/14 02:02:28;;;;;;;3.90;2.08;;;;;;;14.28;100.00;96145.63;1037960;28;20124;-73
2023/07/14 02:03:00;;;;;;;5.82;2.03;;;;;;;14.27;100.00;96138.78;1030524;28;20026;-72
2023/07/14 02:03:41;;;;;;;3.88;2.00;;;;;;;14.29;100.00;96144.56;1034441;28;20025;-73
2023/07/14 02:04:21;;;;;;;3.83;2.10;;;;;;;14.23;100.00;96140.41;1032857;28;20106;-73
2023/07/14 02:04:51;;;;;;;4.63;2.35;;;;;;;14.20;100.00;96137.53;1034729;28;20099;-73
2023/07/14 02:05:33;;;;;;;5.63;2.33;;;;;;;14.24;100.00;96141.19;1034660;28;20026;-73
2023/07/14 02:06:03;;;;;;;6.88;2.28;;;;;;;14.22;100.00;96144.09;1031533;28;20846;-73
2023/07/14 02:06:34;;;;;;;4.60;2.17;;;;;;;14.24;100.00;96141.97;1034872;28;20096;-73
2023/07/14 02:07:04;;;;;;;8.50;2.08;;;;;;;14.01;100.00;96117.06;1032134;28;20034;-73
2023/07/14 02:07:35;;;;;;;10.50;2.60;;;;;;;14.12;100.00;96133.63;1029022;28;20033;-73
2023/07/14 02:08:06;;;;;;;9.90;2.65;;;;;;;14.20;100.00;96145.44;1026226;28;20034;-73
2023/07/14 02:08:37;;;;;;;9.18;2.38;;;;;;;14.15;100.00;96141.78;1033175;28;20026;-72
2023/07/14 02:09:11;;;;;;;4.90;2.22;;;;;;;14.19;100.00;96143.88;1034970;28;20475;-73
2023/07/14 02:09:41;;;;;;;2.65;2.00;;;;;;;14.11;100.00;96137.31;1036019;28;20026;-72
2023/07/14 02:10:15;;;;;;;3.10;2.15;;;;;;;14.17;100.00;96146.78;1034483;28;20030;-73
2023/07/14 02:10:46;;;;;;;4.05;2.20;;;;;;;14.17;100.00;96145.97;1035894;28;20065;-73
2023/07/14 02:11:21;;;;;;;9.40;2.00;;;;;;;14.12;100.00;96144.97;1033892;28;20056;-72
2023/07/14 02:11:54;;;;;;;3.13;2.03;;;;;;;14.09;100.00;96134.97;1038554;28;20677;-73
2023/07/14 02:12:29;;;;;;;3.30;2.33;;;;;;;14.12;100.00;96149.47;1034591;28;20026;-72
2023/07/14 02:13:00;;;;;;;5.15;2.40;;;;;;;14.07;100.00;96141.56;1034588;28;20033;-72
2023/07/14 02:13:31;;;;;;;7.38;2.88;;;;;;;14.12;100.00;96141.53;1043039;28;20510;-73
2023/07/14 02:14:02;;;;;;;6.22;2.30;;;;;;;14.07;100.00;96142.34;1042675;28;20033;-73
2023/07/14 02:14:40;;;;;;;4.10;2.10;;;;;;;14.10;100.00;96143.66;1030549;28;20029;-73
2023/07/14 02:15:10;;;;;;;4.60;2.83;;;;;;;14.07;100.00;96147.63;1034836;28;20021;-73
2023/07/14 02:15:41;;;;;;;3.33;2.15;;;;;;;14.07;100.00;96146.84;1034524;28;20025;-73
2023/07/14 02:16:12;;;;;;;3.95;2.40;;;;;;;14.08;100.00;96149.22;1030785;28;20791;-73
2023/07/14 02:16:45;;;;;;;7.03;3.25;;;;;;;14.09;100.00;96150.00;1034433;28;20499;-73
2023/07/14 02:17:24;;;;;;;4.93;2.33;;;;;;;14.05;100.00;96141.03;1034501;28;20032;-73
2023/07/14 02:17:57;;;;;;;3.80;3.00;;;;;;;14.06;100.00;96143.41;1038639;28;20030;-72
2023/07/14 02:18:27;;;;;;;3.90;2.60;;;;;;;14.01;100.00;96140.81;1038575;28;20033;-73
2023/07/14 02:18:58;;;;;;;5.35;1.92;;;;;;;14.05;100.00;96144.50;1026774;28;20033;-72
2023/07/14 02:19:28;;;;;;;3.83;2.13;;;;;;;14.04;100.00;96142.09;1030432;28;20034;-72
2023/07/14 02:20:11;;;;;;;9.85;2.30;;;;;;;14.05;100.00;96141.03;1030191;28;20038;-73
2023/07/14 02:20:41;;;;;;;4.88;2.40;;;;;;;14.00;100.00;96135.81;1026780;28;20027;-73
2023/07/14 02:21:13;;;;;;;4.65;2.17;;;;;;;14.04;100.00;96148.16;1027514;28;20023;-73
2023/07/14 02:21:44;;;;;;;3.53;2.30;;;;;;;14.03;100.00;96143.97;1030660;28;20029;-73
2023/07/14 02:22:14;;;;;;;3.20;2.20;;;;;;;14.00;100.00;96146.38;1026326;28;20031;-73
2023/07/14 02:22:45;;;;;;;5.25;2.38;;;;;;;14.01;100.00;96143.44;1032811;28;20519;-73
2023/07/14 02:23:19;;;;;;;3.55;2.05;;;;;;;14.03;100.00;96145.81;1039381;28;20021;-73
2023/07/14 02:23:50;;;;;;;6.20;2.58;;;;;;;13.98;100.00;96136.06;1035362;28;20026;-72
2023/07/14 02:24:24;;;;;;;12.23;3.28;;;;;;;14.00;100.00;96143.72;1031551;28;20030;-72
2023/07/14 02:24:55;;;;;;;6.78;2.47;;;;;;;14.06;100.00;96142.63;1030437;28;20045;-73
2023/07/14 02:25:26;;;;;;;6.10;2.80;;;;;;;14.01;100.00;96140.00;1034484;28;20396;-73
2023/07/14 02:26:27;;;;;;;5.50;2.30;;;;;;;14.05;100.00;96154.22;1030355;28;20048;-72
2023/07/14 02:26:59;;;;;;;;;;;;;;;14.01;100.00;96148.72;1011380;29;20108;-72
2023/07/14 02:27:29;;;;;;;5.30;2.47;;;;;;;13.94;100.00;96140.31;1031477;28;20371;-73
2023/07/14 02:28:00;;;;;;;5.53;2.55;;;;;;;13.96;100.00;96145.34;1034941;28;20029;-72
2023/07/14 02:28:30;;;;;;;2.55;2.22;;;;;;;13.96;100.00;96147.97;1031151;28;20344;-71
2023/07/14 02:29:01;;;;;;;6.32;2.53;;;;;;;13.90;100.00;96148.00;1034829;28;20053;-73
2023/07/14 02:29:31;;;;;;;7.28;2.55;;;;;;;13.94;100.00;96158.00;1034983;28;20037;-72
2023/07/14 02:30:15;;;;;;;5.90;2.28;;;;;;;13.91;100.00;96154.84;1035426;28;20795;-73
2023/07/14 02:30:47;;;;;;;2.90;2.20;;;;;;;13.91;100.00;96160.13;1031139;28;20032;-73
2023/07/14 02:31:26;;;;;;;3.45;2.15;;;;;;;13.90;100.00;96145.34;1032307;28;20057;-73
2023/07/14 02:32:04;;;;;;;6.40;2.75;;;;;;;13.86;100.00;96152.25;1034293;28;20033;-72
2023/07/14 02:32:35;;;;;;;5.82;2.22;;;;;;;13.87;100.00;96148.53;1031120;28;20439;-73
2023/07/14 02:33:07;;;;;;;7.00;2.47;;;;;;;13.82;100.00;96134.63;1031222;28;20022;-73
2023/07/14 02:33:38;;;;;;;8.88;2.40;;;;;;;13.86;100.00;96144.34;1031016;28;20038;-73
2023/07/14 02:34:11;;;;;;;2.70;2.08;;;;;;;13.84;100.00;96149.09;1031082;28;20018;-73
2023/07/14 02:34:45;;;;;;;5.13;1.92;;;;;;;13.84;100.00;96137.75;1034592;28;20112;-74
2023/07/14 02:35:30;;;;;;;3.75;2.45;;;;;;;13.87;100.00;96148.53;1039077;28;20496;-74
2023/07/14 02:36:19;;;;;;;5.30;2.45;;;;;;;13.85;100.00;96153.31;1030924;28;20663;-73
2023/07/14 02:37:03;;;;;;;2.65;2.10;;;;;;;13.85;100.00;96144.63;1036173;28;20134;-73